createdAt,value
2022-10-26T00:59:20.949Z,18.80
2022-10-26T01:01:49.389Z,20.02
2022-10-26T01:04:22.951Z,13.88
2022-10-26T01:06:52.004Z,19.73
2022-10-26T01:09:20.492Z,15.20
2022-10-26T01:17:24.217Z,14.98
2022-10-26T01:20:28.024Z,17.23
2022-10-26T01:32:42.989Z,17.60
2022-10-26T01:35:33.617Z,15.05
2022-10-26T01:56:46.080Z,19.58
2022-10-26T01:59:54.417Z,17.55
2022-10-26T02:02:45.237Z,19.38
2022-10-26T02:05:30.992Z,17.45
2022-10-26T02:08:18.733Z,17.77
2022-10-26T02:10:51.808Z,21.00
2022-10-26T02:13:28.898Z,18.67
2022-10-26T02:16:04.556Z,19.27
2022-10-26T02:23:39.160Z,17.65
2022-10-26T02:26:09.817Z,18.20
2022-10-26T02:28:45.345Z,14.32
2022-10-26T02:31:14.441Z,18.92
2022-10-26T02:38:09.945Z,16.83
2022-10-26T02:40:38.083Z,17.75
2022-10-26T02:52:14.294Z,14.35
2022-10-26T02:54:54.475Z,15.27
2022-10-26T03:01:44.234Z,16.88
2022-10-26T03:04:11.440Z,13.73
2022-10-26T03:16:25.950Z,21.58
2022-10-26T03:18:53.002Z,15.52
2022-10-26T03:21:20.058Z,15.40
2022-10-26T03:36:48.485Z,16.95
2022-10-26T03:39:15.682Z,22.25
2022-10-26T03:41:42.780Z,16.52
2022-10-26T03:52:52.788Z,15.02
2022-10-26T03:55:19.993Z,16.02
2022-10-26T03:57:47.188Z,14.82
2022-10-26T04:00:16.663Z,16.50
2022-10-26T04:02:47.188Z,15.00
2022-10-26T04:32:03.958Z,21.80
2022-10-26T04:34:31.142Z,17.05
2022-10-26T04:41:00.469Z,16.95
2022-10-26T04:43:29.477Z,18.90
2022-10-26T04:45:57.184Z,18.85
2022-10-26T04:56:14.905Z,18.38
2022-10-26T04:58:41.999Z,18.27
2022-10-26T05:01:09.131Z,19.33
2022-10-26T05:04:16.307Z,20.08
2022-10-26T05:06:43.526Z,17.30
2022-10-26T05:09:10.743Z,15.93
2022-10-26T05:20:39.261Z,16.23
2022-10-26T05:23:10.613Z,18.85
2022-10-26T05:28:44.217Z,17.70
2022-10-26T05:31:11.321Z,19.40
2022-10-26T05:38:58.914Z,16.52
2022-10-26T05:41:26.167Z,17.80
2022-10-26T05:43:53.223Z,18.55
2022-10-26T05:46:37.492Z,17.10
2022-10-26T05:49:04.635Z,17.23
2022-10-26T05:51:34.296Z,22.77
2022-10-26T05:59:33.876Z,20.00
2022-10-26T06:02:33.432Z,19.00
2022-10-26T06:23:45.982Z,19.52
2022-10-26T06:26:42.362Z,20.20
2022-10-26T06:37:55.555Z,18.13
2022-10-26T06:40:24.068Z,21.77
2022-10-26T06:42:51.390Z,18.65
2022-10-26T06:45:20.755Z,18.38
2022-10-26T06:48:13.145Z,21.02
2022-10-26T06:59:51.772Z,18.95
2022-10-26T07:02:19.663Z,21.23
2022-10-26T07:04:46.906Z,19.48
2022-10-26T07:07:29.317Z,19.52
2022-10-26T07:33:04.447Z,22.40
2022-10-26T07:35:35.769Z,19.35
2022-10-26T07:39:10.717Z,19.52
2022-10-26T07:41:37.906Z,21.10
2022-10-26T07:44:05.609Z,25.25
2022-10-26T07:46:32.822Z,20.92
2022-10-26T07:48:59.874Z,16.70
2022-10-26T07:51:33.468Z,26.98
2022-10-26T07:54:00.694Z,23.80
2022-10-26T07:56:28.868Z,26.17
2022-10-26T08:00:01.545Z,20.58
2022-10-26T08:02:32.043Z,23.83
2022-10-26T08:04:59.220Z,28.10
2022-10-26T08:07:44.697Z,20.05
2022-10-26T08:10:12.489Z,21.00
2022-10-26T08:21:36.143Z,17.45
2022-10-26T08:24:06.855Z,19.80
2022-10-26T08:27:15.104Z,21.60
2022-10-26T08:29:42.642Z,19.17
2022-10-26T08:32:09.934Z,23.33
2022-10-26T08:34:38.573Z,21.10
2022-10-26T08:37:05.687Z,14.52
2022-10-26T08:39:32.942Z,18.40
2022-10-26T08:42:15.635Z,18.38
2022-10-26T08:44:47.195Z,19.33
2022-10-26T08:51:19.835Z,17.58
2022-10-26T08:55:02.711Z,17.20
2022-10-26T08:57:38.895Z,22.25
2022-10-26T09:00:24.949Z,17.65
2022-10-26T09:02:53.451Z,26.17
2022-10-26T09:10:08.514Z,21.83
2022-10-26T09:12:59.868Z,16.60
2022-10-26T09:24:32.092Z,23.75
2022-10-26T09:27:27.234Z,15.00
2022-10-26T09:29:59.970Z,16.30
2022-10-26T09:32:35.065Z,20.38
2022-10-26T09:35:13.981Z,11.25
2022-10-26T09:37:48.066Z,18.35
2022-10-26T09:43:20.992Z,13.20
2022-10-26T09:46:07.577Z,15.13
2022-10-26T09:48:50.181Z,15.63
2022-10-26T09:55:42.124Z,14.63
2022-10-26T09:58:25.538Z,9.00
2022-10-26T10:01:36.823Z,10.10
2022-10-26T10:04:26.427Z,7.28
2022-10-26T10:07:25.885Z,17.15
2022-10-26T10:10:19.906Z,12.25
2022-10-26T10:17:21.615Z,6.45
2022-10-26T10:19:49.458Z,13.82
2022-10-26T10:29:30.249Z,19.27
2022-10-26T10:32:40.569Z,12.35
2022-10-26T10:35:25.675Z,13.82
2022-10-26T10:37:59.683Z,8.10
2022-10-26T10:40:30.927Z,71.85
2022-10-26T10:43:13.546Z,10.95
2022-10-26T10:45:41.382Z,9.20
2022-10-26T10:48:13.677Z,8.93
2022-10-26T10:51:00.953Z,6.78
2022-10-26T10:53:49.382Z,10.23
2022-10-26T10:56:41.832Z,8.13
2022-10-26T10:59:48.182Z,13.80
2022-10-26T11:02:46.552Z,10.95
2022-10-26T11:05:39.560Z,11.68
2022-10-26T11:08:29.794Z,6.88
2022-10-26T11:11:05.299Z,6.93
2022-10-26T11:13:39.164Z,9.35
2022-10-26T11:16:16.725Z,8.52
2022-10-26T11:18:50.617Z,8.95
2022-10-26T11:21:26.271Z,8.30
2022-10-26T11:24:00.471Z,8.57
2022-10-26T11:29:35.031Z,8.27
2022-10-26T11:32:22.497Z,9.05
2022-10-26T11:35:11.685Z,7.20
2022-10-26T11:41:47.477Z,5.75
2022-10-26T11:45:38.647Z,7.13
2022-10-26T11:48:28.602Z,7.43
2022-10-26T11:51:30.196Z,8.07
2022-10-26T11:54:07.718Z,7.97
2022-10-26T11:56:49.812Z,14.00
2022-10-26T11:59:23.012Z,10.13
2022-10-26T12:05:57.586Z,11.70
2022-10-26T12:08:42.059Z,8.20
2022-10-26T12:14:00.494Z,8.52
2022-10-26T12:16:42.706Z,7.70
2022-10-26T12:19:23.247Z,5.90
2022-10-26T12:21:51.747Z,6.80
2022-10-26T12:24:36.947Z,8.23
2022-10-26T12:27:06.232Z,5.88
2022-10-26T12:29:43.032Z,9.57
2022-10-26T12:32:28.960Z,6.82
2022-10-26T12:36:02.683Z,6.47
2022-10-26T12:38:33.787Z,5.97
2022-10-26T12:41:23.311Z,6.97
2022-10-26T12:43:50.702Z,3.95
2022-10-26T13:00:05.403Z,6.43
2022-10-26T13:03:10.388Z,6.40
2022-10-26T13:09:45.089Z,6.00
2022-10-26T13:12:39.603Z,8.00
2022-10-26T13:15:27.520Z,4.97
2022-10-26T13:18:09.524Z,9.02
2022-10-26T13:20:52.179Z,4.72
2022-10-26T13:23:27.632Z,7.95
2022-10-26T13:26:17.416Z,4.82
2022-10-26T13:28:47.822Z,5.38
2022-10-26T13:31:37.597Z,4.75
2022-10-26T13:36:51.832Z,6.97
2022-10-26T13:39:27.659Z,4.22
2022-10-26T13:41:56.712Z,9.35
2022-10-26T13:45:26.708Z,5.20
2022-10-26T13:48:14.998Z,5.43
2022-10-26T13:50:55.242Z,6.70
2022-10-26T13:53:58.197Z,6.50
2022-10-26T13:56:34.137Z,5.80
2022-10-26T13:59:13.694Z,4.68
2022-10-26T14:02:07.684Z,4.47
2022-10-26T14:04:35.194Z,4.63
2022-10-26T14:12:37.693Z,8.52
2022-10-26T14:15:09.550Z,6.05
2022-10-26T14:20:52.555Z,6.18
2022-10-26T14:23:27.518Z,5.20
2022-10-26T14:27:01.572Z,6.47
2022-10-26T14:29:33.211Z,4.78
2022-10-26T14:32:01.520Z,5.47
2022-10-26T14:34:29.214Z,4.63
2022-10-26T14:37:02.059Z,6.07
2022-10-26T14:39:29.161Z,8.98
2022-10-26T14:41:57.405Z,5.97
2022-10-26T14:49:22.860Z,4.87
2022-10-26T14:51:56.798Z,6.68
2022-10-26T14:54:27.669Z,6.40
2022-10-26T14:56:57.068Z,6.50
2022-10-26T15:04:03.060Z,4.03
2022-10-26T15:06:38.441Z,6.13
2022-10-26T15:09:55.723Z,5.00
2022-10-26T15:12:33.865Z,9.05
2022-10-26T15:16:08.492Z,5.72
2022-10-26T15:18:39.521Z,8.30
2022-10-26T15:21:24.570Z,5.30
2022-10-26T15:23:54.961Z,4.55
2022-10-26T15:30:28.075Z,4.00
2022-10-26T15:33:22.303Z,4.78
2022-10-26T15:35:49.785Z,5.75
2022-10-26T15:38:17.065Z,7.97
2022-10-26T15:40:44.653Z,7.45
2022-10-26T15:43:12.642Z,6.50
2022-10-26T15:49:31.903Z,7.78
2022-10-26T15:51:59.378Z,8.10
2022-10-26T15:54:26.532Z,9.48
2022-10-26T15:56:53.736Z,7.43
2022-10-26T15:59:46.043Z,8.15
2022-10-26T16:02:17.519Z,10.40
2022-10-26T16:07:51.159Z,18.83
2022-10-26T16:10:22.689Z,14.00
2022-10-26T16:13:13.821Z,11.68
2022-10-26T16:15:41.658Z,17.13
2022-10-26T16:18:08.865Z,15.90
2022-10-26T16:21:44.093Z,11.27
2022-10-26T16:24:11.353Z,8.45
2022-10-26T16:26:38.455Z,9.68
2022-10-26T16:29:06.171Z,9.32
2022-10-26T16:31:47.231Z,9.00
2022-10-26T16:34:40.801Z,10.18
2022-10-26T16:37:10.892Z,11.68
2022-10-26T16:39:44.083Z,9.93
2022-10-26T16:42:11.356Z,14.65
2022-10-26T16:44:41.789Z,11.18
2022-10-26T16:48:00.432Z,9.10
2022-10-26T16:50:35.493Z,13.00
2022-10-26T16:54:16.640Z,13.68
2022-10-26T16:56:43.873Z,11.43
2022-10-26T16:59:11.454Z,14.93
2022-10-26T17:06:10.108Z,19.98
2022-10-26T17:08:38.210Z,20.30
2022-10-26T17:12:10.749Z,16.45
2022-10-26T17:14:38.697Z,20.65
2022-10-26T17:25:38.543Z,13.10
2022-10-26T17:32:39.786Z,16.38
2022-10-26T17:35:07.646Z,22.05
2022-10-26T17:40:53.921Z,16.48
2022-10-26T17:43:21.747Z,20.42
2022-10-26T17:55:01.779Z,26.33
2022-10-26T17:57:33.200Z,24.20
2022-10-26T18:08:49.740Z,29.65
2022-10-26T18:25:25.394Z,26.05
2022-10-26T18:27:53.854Z,24.52
2022-10-26T18:30:22.207Z,23.85
2022-10-26T18:38:13.767Z,27.67
2022-10-26T18:40:41.120Z,34.00
2022-10-26T18:43:08.455Z,34.95
2022-10-26T18:49:42.429Z,29.52
2022-10-26T18:52:16.279Z,29.52
2022-10-26T18:54:43.484Z,30.80
2022-10-26T18:57:10.674Z,38.00
2022-10-26T19:04:07.031Z,34.28
2022-10-26T19:06:37.655Z,36.80
2022-10-26T19:27:39.687Z,28.13
2022-10-26T19:30:07.568Z,25.88
2022-10-26T19:32:36.618Z,29.27
2022-10-26T19:40:01.628Z,24.57
2022-10-26T19:42:28.830Z,26.83
2022-10-26T19:44:56.018Z,23.75
2022-10-26T19:51:48.510Z,25.98
2022-10-26T19:54:16.007Z,27.38
2022-10-26T19:56:43.327Z,30.55
2022-10-26T20:08:19.928Z,28.65
2022-10-26T20:10:47.338Z,32.50
2022-10-26T20:13:15.402Z,24.42
2022-10-26T20:30:18.382Z,25.70
2022-10-26T20:32:45.854Z,24.70
2022-10-26T20:35:13.040Z,27.75
2022-10-26T20:38:39.716Z,24.48
2022-10-26T20:41:12.265Z,37.22
2022-10-26T20:44:25.982Z,25.98
2022-10-26T20:46:54.557Z,29.27
2022-10-26T20:50:32.414Z,29.33
2022-10-26T20:53:02.576Z,32.97
2022-10-26T21:08:38.196Z,27.65
2022-10-26T21:11:06.024Z,31.42
2022-10-26T21:13:33.486Z,27.63
2022-10-26T21:20:28.038Z,29.67
2022-10-26T21:22:55.484Z,35.70
2022-10-26T21:25:22.815Z,30.60
2022-10-26T21:32:33.530Z,34.70
2022-10-26T21:35:00.909Z,35.17
2022-10-26T21:37:28.411Z,35.17
2022-10-26T21:54:12.617Z,39.97
2022-10-26T21:56:42.649Z,38.03
2022-10-26T21:59:09.819Z,33.47
2022-10-26T22:02:50.477Z,32.95
2022-10-26T22:05:20.277Z,31.95
2022-10-26T22:07:47.612Z,28.85
2022-10-26T22:10:15.083Z,30.45
2022-10-26T22:12:42.244Z,34.40
2022-10-26T22:32:47.988Z,35.55
2022-10-26T22:35:29.129Z,33.00
2022-10-26T22:38:24.547Z,33.53
2022-10-26T22:40:56.001Z,40.53
2022-10-26T22:56:32.180Z,38.58
2022-10-26T22:59:00.438Z,40.00
2022-10-26T23:05:09.074Z,42.40
2022-10-26T23:07:36.402Z,43.13
2022-10-26T23:10:04.895Z,47.38
2022-10-26T23:12:32.033Z,48.80
2022-10-26T23:23:41.970Z,39.15
2022-10-26T23:26:15.427Z,35.47
2022-10-26T23:29:39.366Z,37.60
2022-10-26T23:32:07.423Z,35.15
2022-10-26T23:34:34.584Z,36.38
2022-10-26T23:41:00.640Z,33.28
2022-10-26T23:43:28.558Z,36.92
2022-10-26T23:49:55.068Z,40.88
2022-10-26T23:52:22.264Z,37.30
